Time;durP1;ratioP1;P1;durP2;ratioP2;P2;SDS_P1;SDS_P2;PMS_P1;PMS_P2;Temp;Humidity;BMP_temperature;BMP_pressure;BME280_temperature;BME280_humidity;BME280_pressure;Samples;Min_cycle;Max_cycle;Signal;HPM_P1;HPM_P2
2022/09/06 00:00:38;;;;;;;9.57;6.20;;;21.50;99.90;;;;;;5037298;28;20053;-69
2022/09/06 00:03:05;;;;;;;7.72;6.57;;;21.50;99.90;;;;;;5036529;28;20056;-68
2022/09/06 00:05:31;;;;;;;9.65;6.13;;;21.50;99.80;;;;;;5036973;28;20041;-68
2022/09/06 00:08:00;;;;;;;10.35;6.68;;;21.50;99.70;;;;;;5037099;28;20362;-68
2022/09/06 00:10:27;;;;;;;11.05;6.05;;;21.50;99.70;;;;;;5036266;28;20045;-69
2022/09/06 00:12:53;;;;;;;9.60;6.78;;;21.50;99.60;;;;;;5037216;28;20102;-68
2022/09/06 00:15:19;;;;;;;11.25;6.57;;;21.50;99.50;;;;;;5036972;28;20036;-68
2022/09/06 00:17:45;;;;;;;9.00;6.90;;;21.50;99.40;;;;;;5036294;28;20049;-70
2022/09/06 00:20:11;;;;;;;11.10;7.03;;;21.50;99.40;;;;;;5037171;28;20336;-69
2022/09/06 00:22:37;;;;;;;10.02;6.85;;;21.50;99.50;;;;;;5036394;28;20053;-67
2022/09/06 00:25:05;;;;;;;12.45;6.85;;;21.50;99.70;;;;;;5036630;28;20061;-68
2022/09/06 00:27:30;;;;;;;10.65;6.68;;;21.50;99.70;;;;;;5037245;28;20052;-70
2022/09/06 00:29:56;;;;;;;7.85;5.82;;;21.40;99.80;;;;;;5018871;28;20513;-69
2022/09/06 00:32:22;;;;;;;7.97;6.25;;;21.40;99.80;;;;;;5036754;28;20083;-68
2022/09/06 00:34:48;;;;;;;10.45;6.00;;;21.40;99.90;;;;;;5036802;28;20045;-69
2022/09/06 00:37:13;;;;;;;16.75;6.35;;;21.40;99.90;;;;;;5035679;28;20444;-68
2022/09/06 00:39:39;;;;;;;7.47;6.13;;;21.40;99.90;;;;;;5037133;28;20463;-70
2022/09/06 00:42:08;;;;;;;10.60;7.68;;;21.40;99.90;;;;;;5036008;28;20046;-69
2022/09/06 00:44:34;;;;;;;7.75;6.50;;;21.40;99.90;;;;;;5036313;28;20084;-69
2022/09/06 00:46:59;;;;;;;9.15;6.13;;;21.40;99.90;;;;;;5036691;28;20353;-70
2022/09/06 00:49:30;;;;;;;9.27;6.53;;;21.30;99.90;;;;;;5035699;28;20037;-68
2022/09/06 00:52:00;;;;;;;9.23;6.70;;;21.30;99.90;;;;;;5036824;28;20041;-69
2022/09/06 00:54:26;;;;;;;8.55;6.15;;;21.30;99.90;;;;;;5036884;28;20052;-68
2022/09/06 00:56:54;;;;;;;8.07;7.22;;;21.30;99.90;;;;;;5035424;28;20056;-68
2022/09/06 00:59:20;;;;;;;8.95;6.57;;;21.30;99.90;;;;;;5036825;28;20048;-70
2022/09/06 01:01:46;;;;;;;7.43;6.38;;;21.30;99.90;;;;;;5036792;28;20043;-69
2022/09/06 01:04:12;;;;;;;11.60;7.32;;;21.30;99.90;;;;;;5018205;28;20057;-68
2022/09/06 01:07:08;;;;;;;9.05;7.32;;;21.20;99.90;;;;;;5036599;28;20084;-70
2022/09/06 01:09:52;;;;;;;11.63;7.15;;;21.20;99.90;;;;;;5052591;28;20053;-69
2022/09/06 01:12:34;;;;;;;7.47;6.78;;;21.20;99.90;;;;;;5050879;28;20072;-69
2022/09/06 01:15:37;;;;;;;8.02;6.38;;;21.20;99.90;;;;;;5035547;28;20049;-68
2022/09/06 01:18:11;;;;;;;9.02;7.28;;;21.10;99.90;;;;;;5035611;28;20045;-70
2022/09/06 01:20:59;;;;;;;8.65;6.63;;;21.10;99.90;;;;;;5052303;28;20459;-70
2022/09/06 01:23:51;;;;;;;10.85;7.22;;;21.10;99.90;;;;;;5050906;28;20060;-69
2022/09/06 01:26:53;;;;;;;11.27;6.30;;;21.10;99.90;;;;;;5050896;28;20056;-69
2022/09/06 01:29:34;;;;;;;8.13;6.63;;;21.10;99.90;;;;;;5050778;28;20040;-70
2022/09/06 01:32:11;;;;;;;8.00;6.13;;;21.00;99.90;;;;;;5050931;28;20041;-70
2022/09/06 01:34:44;;;;;;;13.75;6.90;;;21.00;99.90;;;;;;5051730;28;20107;-67
2022/09/06 01:37:16;;;;;;;10.90;7.28;;;21.00;99.90;;;;;;5035154;28;20063;-69
2022/09/06 01:39:42;;;;;;;11.00;7.35;;;21.00;99.90;;;;;;5036303;28;20056;-68
2022/09/06 01:42:19;;;;;;;10.02;7.03;;;21.00;99.90;;;;;;5035757;28;20057;-69
2022/09/06 01:44:51;;;;;;;9.65;7.57;;;21.00;99.90;;;;;;5042294;28;20114;-69
2022/09/06 01:47:52;;;;;;;9.73;6.68;;;20.90;99.90;;;;;;5049589;28;20059;-70
2022/09/06 01:50:36;;;;;;;10.70;6.80;;;20.90;99.90;;;;;;5054329;28;20049;-68
2022/09/06 01:53:13;;;;;;;8.68;6.88;;;20.90;99.90;;;;;;5054333;28;20037;-70
2022/09/06 01:55:50;;;;;;;8.20;7.10;;;20.90;99.90;;;;;;5054853;28;20471;-69
2022/09/06 01:58:46;;;;;;;11.18;7.00;;;20.80;99.90;;;;;;5038400;28;20505;-69
2022/09/06 02:01:48;;;;;;;13.82;7.18;;;20.80;99.90;;;;;;5038716;28;20056;-68
2022/09/06 02:04:26;;;;;;;9.70;7.43;;;20.80;99.90;;;;;;5038103;28;20049;-70
2022/09/06 02:06:59;;;;;;;8.52;7.65;;;20.80;99.90;;;;;;5039417;28;20076;-68
2022/09/06 02:09:28;;;;;;;9.80;7.13;;;20.80;99.90;;;;;;5039515;28;20029;-70
2022/09/06 02:11:58;;;;;;;9.60;7.18;;;20.80;99.90;;;;;;5038505;28;20371;-69
2022/09/06 02:14:42;;;;;;;10.40;6.97;;;20.70;99.90;;;;;;5039573;28;20033;-69
2022/09/06 02:17:12;;;;;;;9.70;7.22;;;20.70;99.90;;;;;;5039561;28;20117;-70
2022/09/06 02:19:43;;;;;;;9.77;7.07;;;20.70;99.90;;;;;;5038965;28;20052;-68
2022/09/06 02:22:12;;;;;;;11.13;7.45;;;20.70;99.90;;;;;;5038326;28;20119;-68
2022/09/06 02:24:41;;;;;;;9.32;6.40;;;20.70;99.90;;;;;;5039215;28;20069;-68
2022/09/06 02:27:07;;;;;;;10.65;7.30;;;20.70;99.90;;;;;;5020812;28;20061;-69
2022/09/06 02:29:34;;;;;;;9.82;6.32;;;20.70;99.90;;;;;;5038673;28;20037;-69
2022/09/06 02:32:13;;;;;;;8.95;7.00;;;20.70;99.90;;;;;;5039007;28;20451;-69
2022/09/06 02:34:40;;;;;;;10.65;6.75;;;20.70;99.90;;;;;;5021428;28;20364;-68
2022/09/06 02:37:06;;;;;;;10.32;6.85;;;20.60;99.90;;;;;;5038296;28;20033;-69
2022/09/06 02:39:32;;;;;;;12.90;6.88;;;20.60;99.90;;;;;;5038990;28;20454;-68
2022/09/06 02:41:58;;;;;;;13.65;6.88;;;20.60;99.90;;;;;;5037981;28;20084;-68
2022/09/06 02:44:23;;;;;;;8.00;7.28;;;20.60;99.90;;;;;;5038858;28;20124;-69
2022/09/06 02:46:49;;;;;;;9.80;6.63;;;20.50;99.90;;;;;;5038931;28;20124;-68
2022/09/06 02:49:14;;;;;;;12.70;7.03;;;20.50;99.90;;;;;;5037842;28;20452;-68
2022/09/06 02:51:40;;;;;;;8.43;7.53;;;20.50;99.90;;;;;;5038849;28;20048;-68
2022/09/06 02:54:06;;;;;;;10.82;6.80;;;20.50;99.90;;;;;;5037786;28;20045;-70
2022/09/06 02:56:32;;;;;;;11.07;7.40;;;20.50;99.90;;;;;;5038570;28;20055;-69
2022/09/06 02:58:59;;;;;;;8.73;7.28;;;20.50;99.90;;;;;;5038252;28;20043;-70
2022/09/06 03:01:25;;;;;;;9.10;7.38;;;20.40;99.90;;;;;;5037537;28;20045;-68
2022/09/06 03:03:50;;;;;;;8.48;7.03;;;20.40;99.90;;;;;;5038454;28;20452;-70
2022/09/06 03:06:16;;;;;;;12.43;7.95;;;20.40;99.90;;;;;;5038535;28;20048;-68
2022/09/06 03:08:41;;;;;;;9.70;7.30;;;20.40;99.90;;;;;;5037500;28;20498;-69
2022/09/06 03:11:07;;;;;;;7.57;6.78;;;20.40;99.90;;;;;;5038335;28;20048;-67
2022/09/06 03:13:33;;;;;;;10.88;7.22;;;20.40;99.90;;;;;;5037152;28;20056;-67
2022/09/06 03:15:59;;;;;;;11.50;7.57;;;20.40;99.90;;;;;;5020594;28;20075;-69
2022/09/06 03:18:27;;;;;;;8.35;7.40;;;20.40;99.90;;;;;;5038378;28;20049;-69
2022/09/06 03:20:54;;;;;;;8.20;7.40;;;20.40;99.90;;;;;;5037546;28;20064;-68
2022/09/06 03:23:24;;;;;;;16.80;7.80;;;20.30;99.90;;;;;;5037929;28;20045;-69
2022/09/06 03:25:50;;;;;;;12.27;8.18;;;20.30;99.90;;;;;;5037940;28;20511;-68
2022/09/06 03:28:16;;;;;;;9.82;7.93;;;20.30;99.90;;;;;;5037071;28;20046;-69
2022/09/06 03:30:46;;;;;;;9.77;8.10;;;20.30;99.90;;;;;;5038105;28;20367;-68
2022/09/06 03:33:12;;;;;;;11.02;7.53;;;20.30;99.90;;;;;;5037861;28;20045;-68
2022/09/06 03:35:38;;;;;;;9.70;7.72;;;20.30;99.90;;;;;;5037021;28;20040;-68
2022/09/06 03:38:04;;;;;;;11.23;8.15;;;20.30;99.90;;;;;;5037857;28;20460;-70
2022/09/06 03:40:29;;;;;;;11.82;7.93;;;20.20;99.90;;;;;;5036688;28;20131;-68
2022/09/06 03:42:55;;;;;;;10.02;7.45;;;20.20;99.90;;;;;;5037741;28;20447;-68
2022/09/06 03:45:20;;;;;;;8.65;7.75;;;20.20;99.90;;;;;;5037673;28;20106;-68
2022/09/06 03:47:46;;;;;;;13.05;8.13;;;20.20;99.90;;;;;;5036609;28;20455;-68
2022/09/06 03:50:11;;;;;;;10.00;8.18;;;20.20;99.90;;;;;;5020136;28;20047;-68
2022/09/06 03:52:37;;;;;;;8.30;7.28;;;20.20;99.90;;;;;;5036983;28;20498;-68
2022/09/06 03:55:04;;;;;;;8.23;7.43;;;20.10;99.90;;;;;;5037108;28;20112;-69
2022/09/06 03:57:29;;;;;;;9.15;7.28;;;20.10;99.90;;;;;;5037354;28;20029;-68
2022/09/06 03:59:55;;;;;;;13.05;7.70;;;20.10;99.90;;;;;;5036627;28;20045;-69
2022/09/06 04:02:21;;;;;;;15.20;8.00;;;20.10;99.90;;;;;;5019805;28;20072;-67
2022/09/06 04:04:46;;;;;;;12.60;8.57;;;20.10;99.90;;;;;;5037297;28;20041;-70
2022/09/06 04:07:12;;;;;;;9.90;7.68;;;20.00;99.90;;;;;;5036245;28;20041;-68
2022/09/06 04:09:37;;;;;;;9.27;7.60;;;20.00;99.90;;;;;;5037344;28;20092;-69
2022/09/06 04:12:03;;;;;;;11.15;8.13;;;20.00;99.90;;;;;;5035663;28;20127;-70
2022/09/06 04:14:29;;;;;;;15.90;8.02;;;20.00;99.90;;;;;;5037294;28;20116;-68
2022/09/06 04:16:54;;;;;;;17.45;8.13;;;20.00;99.90;;;;;;5020158;28;20048;-68
2022/09/06 04:19:20;;;;;;;11.38;9.23;;;20.00;99.90;;;;;;5018836;28;20053;-68
2022/09/06 04:21:46;;;;;;;10.45;8.48;;;20.00;99.90;;;;;;5019188;28;20383;-70
2022/09/06 04:24:12;;;;;;;11.27;9.05;;;19.90;99.90;;;;;;5036694;28;20061;-68
2022/09/06 04:26:37;;;;;;;13.88;9.50;;;19.90;99.90;;;;;;5036001;28;20452;-69
2022/09/06 04:29:03;;;;;;;10.95;8.95;;;19.90;99.90;;;;;;5037148;28;20036;-69
2022/09/06 04:31:28;;;;;;;11.27;8.93;;;19.80;99.90;;;;;;5035848;28;20041;-69
2022/09/06 04:33:54;;;;;;;12.77;9.18;;;19.80;99.90;;;;;;5037150;28;20451;-69
2022/09/06 04:36:20;;;;;;;11.38;9.43;;;19.70;99.90;;;;;;5036736;28;20128;-68
2022/09/06 04:38:45;;;;;;;11.15;9.85;;;19.60;99.90;;;;;;5036213;28;20057;-69
2022/09/06 04:41:14;;;;;;;11.25;9.43;;;19.60;99.90;;;;;;5036594;28;20033;-67
2022/09/06 04:43:40;;;;;;;11.80;9.95;;;19.50;99.90;;;;;;5036303;28;20054;-68
2022/09/06 04:46:13;;;;;;;13.25;10.13;;;19.50;99.90;;;;;;5036209;28;20048;-67
2022/09/06 04:48:38;;;;;;;16.95;10.65;;;19.50;99.90;;;;;;5036698;28;20172;-67
2022/09/06 04:51:04;;;;;;;11.55;10.45;;;19.40;99.90;;;;;;5035658;28;20080;-68
2022/09/06 04:53:30;;;;;;;12.93;11.65;;;19.30;99.90;;;;;;5036961;28;20069;-68
2022/09/06 04:55:57;;;;;;;13.40;10.95;;;19.30;99.90;;;;;;5036767;28;20387;-68
2022/09/06 04:58:22;;;;;;;13.38;10.82;;;19.20;99.90;;;;;;5044051;28;20052;-68
2022/09/06 05:00:48;;;;;;;14.27;9.98;;;19.20;99.90;;;;;;5051184;28;20360;-67
2022/09/06 05:03:13;;;;;;;12.60;11.40;;;19.20;99.90;;;;;;5051457;28;20132;-67
2022/09/06 05:05:39;;;;;;;12.30;11.20;;;19.10;99.90;;;;;;5035463;28;20045;-69
2022/09/06 05:08:05;;;;;;;14.07;11.82;;;19.10;99.90;;;;;;5036618;28;20049;-69
2022/09/06 05:10:30;;;;;;;12.82;11.35;;;19.10;99.90;;;;;;5035380;28;20046;-68
2022/09/06 05:12:56;;;;;;;13.50;11.68;;;19.00;99.90;;;;;;5036299;28;20100;-70
2022/09/06 05:15:22;;;;;;;12.98;11.65;;;19.00;99.90;;;;;;5036354;28;20045;-69
2022/09/06 05:17:48;;;;;;;13.02;11.85;;;19.00;99.90;;;;;;5052967;28;20145;-68
2022/09/06 05:20:14;;;;;;;14.68;12.02;;;18.90;99.90;;;;;;5050904;28;20502;-68
2022/09/06 05:22:40;;;;;;;16.45;11.90;;;18.90;99.90;;;;;;5053637;28;20037;-69
2022/09/06 05:25:07;;;;;;;13.32;11.20;;;18.90;99.90;;;;;;5056039;28;20379;-66
2022/09/06 05:27:32;;;;;;;13.18;11.93;;;18.90;99.90;;;;;;5054818;28;20056;-69
2022/09/06 05:29:58;;;;;;;14.95;12.07;;;18.90;99.90;;;;;;5056462;28;20041;-69
2022/09/06 05:32:23;;;;;;;14.00;12.00;;;18.90;99.90;;;;;;5054865;28;20451;-69
2022/09/06 05:34:49;;;;;;;12.80;11.60;;;18.80;99.90;;;;;;5054614;28;20059;-67
2022/09/06 05:37:14;;;;;;;12.60;11.43;;;18.80;99.90;;;;;;5056232;28;20057;-66
2022/09/06 05:39:40;;;;;;;13.35;12.05;;;18.80;99.90;;;;;;5054497;28;20365;-68
2022/09/06 05:42:06;;;;;;;13.52;12.13;;;18.80;99.90;;;;;;5055879;28;20051;-68
2022/09/06 05:44:36;;;;;;;13.18;11.85;;;18.80;99.90;;;;;;5054965;28;20090;-72
2022/09/06 05:47:02;;;;;;;16.38;12.35;;;18.70;99.90;;;;;;5054010;28;20037;-73
2022/09/06 05:49:29;;;;;;;14.05;11.88;;;18.70;99.90;;;;;;5056274;28;20041;-78
2022/09/06 05:51:55;;;;;;;13.13;11.82;;;18.70;99.90;;;;;;5054315;28;20474;-77
2022/09/06 05:54:20;;;;;;;17.80;12.13;;;18.70;99.90;;;;;;5056445;28;20051;-77
2022/09/06 05:56:46;;;;;;;12.95;11.23;;;18.70;99.90;;;;;;5068138;28;20044;-70
2022/09/06 05:59:11;;;;;;;13.88;12.55;;;18.70;99.90;;;;;;5036859;28;20055;-67
2022/09/06 06:01:50;;;;;;;12.95;11.68;;;18.70;99.90;;;;;;5055020;28;20132;-67
2022/09/06 06:04:17;;;;;;;14.15;11.27;;;18.70;99.90;;;;;;5045723;28;20060;-67
2022/09/06 06:06:43;;;;;;;14.10;12.27;;;18.60;99.90;;;;;;5053830;28;20131;-67
2022/09/06 06:09:09;;;;;;;16.05;11.75;;;18.60;99.90;;;;;;5057714;28;20041;-69
2022/09/06 06:11:35;;;;;;;13.52;11.80;;;18.60;99.90;;;;;;5056117;28;20040;-67
2022/09/06 06:14:02;;;;;;;13.18;11.55;;;18.60;99.90;;;;;;5053599;28;20048;-68
2022/09/06 06:16:28;;;;;;;14.63;12.07;;;18.60;99.90;;;;;;5055440;28;20037;-69
2022/09/06 06:18:54;;;;;;;14.07;12.40;;;18.60;99.90;;;;;;5038769;28;20056;-66
2022/09/06 06:21:25;;;;;;;14.20;12.60;;;18.60;99.90;;;;;;5039380;28;20080;-66
2022/09/06 06:23:56;;;;;;;13.43;11.95;;;18.60;99.90;;;;;;5037980;28;20053;-67
2022/09/06 06:26:23;;;;;;;15.13;12.23;;;18.60;99.90;;;;;;5039196;28;20045;-67
2022/09/06 06:28:50;;;;;;;13.75;12.15;;;18.60;99.90;;;;;;5039168;28;20427;-67
2022/09/06 06:31:16;;;;;;;13.57;12.10;;;18.60;99.90;;;;;;5038079;28;20056;-66
2022/09/06 06:33:43;;;;;;;15.75;12.70;;;18.60;99.90;;;;;;5038649;28;20045;-66
2022/09/06 06:36:12;;;;;;;14.32;12.43;;;18.70;99.90;;;;;;5037986;28;20045;-66
2022/09/06 06:38:39;;;;;;;13.85;12.48;;;18.70;99.90;;;;;;5038118;28;20455;-67
2022/09/06 06:41:05;;;;;;;13.68;12.15;;;18.70;99.90;;;;;;5038722;28;20036;-66
2022/09/06 06:43:35;;;;;;;13.75;12.00;;;18.70;99.90;;;;;;5037795;28;20456;-66
2022/09/06 06:46:04;;;;;;;12.90;11.23;;;18.70;99.90;;;;;;5038753;28;20042;-66
2022/09/06 06:48:30;;;;;;;13.90;12.43;;;18.80;99.90;;;;;;5038755;28;20087;-66
2022/09/06 06:50:56;;;;;;;14.55;12.02;;;18.80;99.90;;;;;;5037829;28;20076;-66
2022/09/06 06:53:21;;;;;;;14.30;11.65;;;18.80;99.90;;;;;;5038701;28;20436;-66
2022/09/06 06:55:47;;;;;;;13.85;12.45;;;18.80;99.90;;;;;;5038603;28;20037;-66
2022/09/06 06:58:17;;;;;;;13.55;12.35;;;18.80;99.90;;;;;;5037488;28;20103;-65
2022/09/06 07:00:45;;;;;;;13.68;11.60;;;18.80;99.90;;;;;;5038374;28;20364;-66
2022/09/06 07:03:12;;;;;;;14.85;13.18;;;18.90;99.90;;;;;;5003994;28;20045;-66
2022/09/06 07:05:39;;;;;;;15.45;12.25;;;19.00;99.90;;;;;;5037754;28;20052;-67
2022/09/06 07:08:05;;;;;;;13.07;11.65;;;19.10;99.90;;;;;;5021095;28;20074;-67
2022/09/06 07:10:31;;;;;;;13.02;11.68;;;19.20;99.90;;;;;;5037367;28;20498;-66
2022/09/06 07:12:57;;;;;;;13.25;11.85;;;19.30;99.90;;;;;;5038158;28;20045;-67
2022/09/06 07:15:23;;;;;;;19.08;12.40;;;19.40;99.90;;;;;;5038262;28;20045;-66
2022/09/06 07:17:49;;;;;;;13.55;12.25;;;19.40;99.90;;;;;;5037045;28;20041;-67
2022/09/06 07:20:14;;;;;;;14.73;12.82;;;19.50;99.90;;;;;;5038364;28;20045;-66
2022/09/06 07:22:40;;;;;;;14.52;12.23;;;19.60;99.90;;;;;;5037465;28;20371;-66
2022/09/06 07:25:08;;;;;;;14.90;13.50;;;19.60;99.90;;;;;;5037423;28;20057;-67
2022/09/06 07:27:33;;;;;;;13.95;12.43;;;19.70;99.90;;;;;;5037666;28;20466;-67
2022/09/06 07:29:59;;;;;;;13.85;12.25;;;19.80;99.90;;;;;;5036844;28;20060;-67
2022/09/06 07:32:24;;;;;;;14.55;11.40;;;19.90;99.90;;;;;;5037972;28;20068;-67
2022/09/06 07:34:50;;;;;;;15.50;13.23;;;19.90;99.90;;;;;;5038075;28;20414;-66
2022/09/06 07:37:15;;;;;;;16.10;14.30;;;19.90;99.90;;;;;;5036989;28;20470;-66
2022/09/06 07:39:41;;;;;;;14.25;12.85;;;19.90;99.90;;;;;;5037747;28;20041;-66
2022/09/06 07:42:07;;;;;;;16.08;14.32;;;19.90;99.90;;;;;;5036735;28;20042;-66
2022/09/06 07:44:33;;;;;;;14.82;12.95;;;19.90;99.90;;;;;;5037445;28;20033;-66
2022/09/06 07:47:01;;;;;;;18.27;13.55;;;19.90;99.90;;;;;;5036720;28;20045;-66
2022/09/06 07:49:28;;;;;;;14.68;13.38;;;20.00;99.90;;;;;;5036371;28;20045;-66
2022/09/06 07:51:53;;;;;;;15.30;13.88;;;20.00;99.90;;;;;;5037599;28;20034;-67
2022/09/06 07:54:19;;;;;;;15.23;13.55;;;20.00;99.90;;;;;;5037458;28;20045;-66
2022/09/06 07:56:44;;;;;;;15.65;14.05;;;20.10;99.90;;;;;;5036514;28;20061;-66
2022/09/06 07:59:10;;;;;;;14.52;13.23;;;20.00;99.90;;;;;;5037432;28;20360;-66
2022/09/06 08:01:39;;;;;;;14.98;13.40;;;20.10;99.90;;;;;;5018775;28;20072;-66
2022/09/06 08:04:13;;;;;;;16.10;14.45;;;20.10;99.90;;;;;;5052724;28;20036;-66
2022/09/06 08:06:45;;;;;;;14.95;13.55;;;20.10;99.90;;;;;;5051605;28;20183;-66
2022/09/06 08:09:11;;;;;;;17.38;14.30;;;20.10;99.90;;;;;;5052437;28;20124;-66
2022/09/06 08:11:37;;;;;;;14.88;13.55;;;20.20;99.90;;;;;;5052677;28;20112;-66
2022/09/06 08:14:05;;;;;;;15.68;14.07;;;20.10;99.90;;;;;;5051671;28;20107;-66
2022/09/06 08:16:32;;;;;;;15.48;13.68;;;20.20;99.90;;;;;;5053481;28;20403;-66
2022/09/06 08:19:00;;;;;;;18.05;14.88;;;20.20;99.90;;;;;;5051238;28;20080;-67
2022/09/06 08:21:29;;;;;;;15.55;14.07;;;20.20;99.90;;;;;;5051411;28;20045;-66
2022/09/06 08:23:57;;;;;;;14.75;13.30;;;20.20;99.90;;;;;;5052813;28;20057;-66
2022/09/06 08:26:24;;;;;;;14.82;13.02;;;20.30;99.90;;;;;;5051311;28;20091;-66
2022/09/06 08:28:58;;;;;;;15.48;12.85;;;20.40;99.90;;;;;;5051360;28;20085;-66
2022/09/06 08:31:25;;;;;;;14.73;13.23;;;20.40;99.90;;;;;;5035645;28;20080;-68
2022/09/06 08:33:51;;;;;;;14.27;12.90;;;20.50;99.90;;;;;;5051307;28;20036;-66
2022/09/06 08:36:17;;;;;;;15.23;13.65;;;20.60;99.90;;;;;;5051170;28;20095;-66
2022/09/06 08:38:43;;;;;;;15.98;13.68;;;20.70;99.90;;;;;;5052982;28;20033;-67
2022/09/06 08:41:21;;;;;;;14.48;13.18;;;20.80;99.90;;;;;;5033687;28;20127;-66
2022/09/06 08:44:09;;;;;;;13.88;12.68;;;20.80;99.90;;;;;;5051385;28;20052;-67
2022/09/06 08:46:39;;;;;;;16.95;14.00;;;21.00;99.90;;;;;;5052481;28;20069;-67
2022/09/06 08:49:05;;;;;;;15.40;13.77;;;21.00;99.90;;;;;;5051687;28;20486;-67
2022/09/06 08:51:53;;;;;;;14.63;13.18;;;21.10;99.90;;;;;;5051284;28;20101;-66
2022/09/06 08:54:30;;;;;;;17.23;13.63;;;21.10;99.90;;;;;;5051102;28;20363;-67
2022/09/06 08:57:03;;;;;;;15.63;14.07;;;21.20;99.90;;;;;;5045693;28;20041;-66
2022/09/06 08:59:36;;;;;;;13.70;12.27;;;21.20;99.90;;;;;;5041103;28;20129;-66
2022/09/06 09:02:13;;;;;;;15.57;13.43;;;21.30;99.90;;;;;;5040562;28;20498;-66
2022/09/06 09:04:43;;;;;;;14.75;13.13;;;21.40;99.90;;;;;;5049410;28;20095;-66
2022/09/06 09:07:38;;;;;;;14.38;12.02;;;21.40;99.90;;;;;;5056366;28;20087;-67
2022/09/06 09:10:11;;;;;;;15.90;14.27;;;21.50;99.90;;;;;;5054668;28;20426;-67
2022/09/06 09:12:44;;;;;;;15.20;13.60;;;21.50;99.90;;;;;;5055137;28;20041;-66
2022/09/06 09:15:12;;;;;;;13.23;11.95;;;21.60;99.90;;;;;;5056072;28;20041;-67
2022/09/06 09:17:38;;;;;;;14.10;12.70;;;21.60;99.90;;;;;;5055894;28;20094;-67
2022/09/06 09:20:07;;;;;;;19.13;13.52;;;21.70;99.90;;;;;;5037370;28;20057;-66
2022/09/06 09:22:32;;;;;;;14.20;12.65;;;21.80;99.90;;;;;;5056453;28;20363;-66
2022/09/06 09:25:00;;;;;;;15.88;11.35;;;21.90;99.90;;;;;;5054707;28;20045;-67
2022/09/06 09:27:28;;;;;;;13.57;12.18;;;21.90;99.90;;;;;;5054803;28;20053;-66
2022/09/06 09:29:53;;;;;;;15.55;11.63;;;22.00;99.90;;;;;;5056817;28;20052;-67
2022/09/06 09:32:35;;;;;;;12.68;10.52;;;22.00;99.90;;;;;;5036700;28;20032;-67
2022/09/06 09:35:31;;;;;;;13.20;10.18;;;22.10;99.90;;;;;;5054600;28;20045;-66
2022/09/06 09:38:05;;;;;;;11.98;9.00;;;22.20;99.90;;;;;;5037185;28;20045;-66
2022/09/06 09:40:49;;;;;;;10.02;8.98;;;22.30;99.90;;;;;;5056344;28;20494;-67
2022/09/06 09:43:30;;;;;;;12.45;9.98;;;22.30;99.90;;;;;;5056163;28;20084;-66
2022/09/06 09:46:22;;;;;;;12.20;9.55;;;22.40;99.90;;;;;;5053952;28;20426;-67
2022/09/06 09:49:09;;;;;;;12.23;8.57;;;22.40;99.90;;;;;;5054025;28;20041;-67
2022/09/06 09:51:46;;;;;;;12.65;8.32;;;22.50;99.90;;;;;;5054405;28;20056;-66
2022/09/06 09:54:30;;;;;;;12.48;9.10;;;22.50;99.90;;;;;;5055166;28;20047;-68
2022/09/06 09:56:56;;;;;;;13.18;10.13;;;22.60;99.90;;;;;;5038510;28;20463;-66
2022/09/06 09:59:29;;;;;;;11.88;10.68;;;22.60;99.90;;;;;;5039703;28;20045;-66
2022/09/06 10:02:00;;;;;;;15.23;11.68;;;22.70;99.90;;;;;;5039255;28;20053;-67
2022/09/06 10:04:34;;;;;;;13.30;9.70;;;22.70;99.90;;;;;;5038642;28;20041;-66
2022/09/06 10:07:08;;;;;;;11.52;8.82;;;22.80;99.90;;;;;;5053832;28;20056;-67
2022/09/06 10:09:35;;;;;;;;;;;22.80;99.90;;;;;;5053314;28;20067;-66
2022/09/06 10:12:00;;;;;;;12.23;9.18;;;22.80;99.90;;;;;;5055643;28;19929;-66
2022/09/06 10:14:26;;;;;;;11.55;9.45;;;22.80;99.90;;;;;;5053869;28;20033;-67
2022/09/06 10:16:52;;;;;;;10.43;9.35;;;22.90;99.90;;;;;;5053752;28;20406;-67
2022/09/06 10:19:43;;;;;;;11.02;9.93;;;23.00;99.90;;;;;;5054984;28;20162;-66
2022/09/06 10:22:08;;;;;;;11.07;9.38;;;23.10;99.90;;;;;;5054520;28;20356;-66
2022/09/06 10:24:55;;;;;;;12.82;8.60;;;23.10;99.90;;;;;;5053312;28;20076;-67
2022/09/06 10:27:25;;;;;;;10.48;7.70;;;23.20;99.90;;;;;;5053478;28;20084;-67
2022/09/06 10:30:00;;;;;;;8.65;7.32;;;23.20;99.90;;;;;;5055237;28;20049;-66
2022/09/06 10:32:36;;;;;;;7.75;7.05;;;23.20;99.90;;;;;;5053365;28;20032;-66
2022/09/06 10:35:14;;;;;;;8.60;6.78;;;23.20;99.90;;;;;;5053545;28;20151;-67
2022/09/06 10:37:46;;;;;;;8.80;6.95;;;23.20;99.90;;;;;;5054564;28;20087;-66
2022/09/06 10:40:20;;;;;;;8.63;7.72;;;23.30;99.90;;;;;;5054831;28;20075;-67
2022/09/06 10:42:51;;;;;;;8.90;6.90;;;23.30;99.90;;;;;;5053218;28;20045;-67
2022/09/06 10:45:26;;;;;;;7.68;6.97;;;23.40;99.90;;;;;;5036001;28;20053;-66
2022/09/06 10:48:07;;;;;;;9.50;7.18;;;23.50;99.90;;;;;;5037698;28;20168;-67
2022/09/06 10:50:45;;;;;;;11.20;6.53;;;23.60;99.90;;;;;;5039011;28;20120;-67
2022/09/06 10:53:29;;;;;;;7.60;6.80;;;23.60;99.90;;;;;;5038806;28;20099;-67
2022/09/06 10:56:03;;;;;;;12.50;7.10;;;23.70;99.90;;;;;;5038431;28;20064;-67
2022/09/06 10:58:31;;;;;;;;;;;23.90;99.80;;;;;;5038085;28;20123;-67
2022/09/06 11:00:57;;;;;;;7.47;6.60;;;24.00;98.90;;;;;;5038666;28;19921;-67
2022/09/06 11:03:30;;;;;;;7.43;6.72;;;24.00;99.70;;;;;;5038595;28;20353;-67
2022/09/06 11:06:06;;;;;;;10.13;9.05;;;24.10;99.80;;;;;;5037420;28;20045;-67
2022/09/06 11:08:36;;;;;;;10.90;8.30;;;24.10;99.50;;;;;;5038514;28;20034;-67
2022/09/06 11:11:10;;;;;;;9.85;8.75;;;24.10;99.80;;;;;;5038516;28;20073;-67
2022/09/06 11:13:35;;;;;;;10.43;8.65;;;24.20;99.80;;;;;;5037349;28;20120;-67
2022/09/06 11:16:19;;;;;;;9.13;8.23;;;24.30;99.60;;;;;;5038355;28;20084;-67
2022/09/06 11:19:04;;;;;;;10.00;8.13;;;24.40;99.30;;;;;;5020971;28;20128;-67
2022/09/06 11:21:38;;;;;;;10.18;8.55;;;24.40;99.20;;;;;;5038111;28;20113;-66
2022/09/06 11:24:19;;;;;;;8.82;6.63;;;24.50;99.30;;;;;;5034818;28;20057;-67
2022/09/06 11:27:32;;;;;;;9.85;6.50;;;24.70;99.00;;;;;;5043603;28;20506;-67
2022/09/06 11:30:00;;;;;;;7.88;7.07;;;24.80;98.40;;;;;;4984303;28;20078;-67
2022/09/06 11:32:34;;;;;;;8.23;6.53;;;25.00;98.10;;;;;;4976832;28;20113;-67
2022/09/06 11:35:03;;;;;;;;;;;25.00;98.10;;;;;;5010147;28;20061;-66
2022/09/06 11:37:38;;;;;;;10.38;6.70;;;25.10;97.50;;;;;;5036934;28;20258;-67
2022/09/06 11:40:21;;;;;;;10.90;7.00;;;25.10;97.80;;;;;;5037857;28;20133;-67
2022/09/06 11:42:47;;;;;;;8.02;7.22;;;25.10;97.60;;;;;;5037782;28;20038;-67
2022/09/06 11:45:20;;;;;;;11.05;6.50;;;25.10;97.60;;;;;;5037188;28;20053;-67
2022/09/06 11:47:50;;;;;;;8.52;6.72;;;25.30;97.40;;;;;;5036493;28;20470;-67
2022/09/06 11:50:19;;;;;;;7.43;5.90;;;25.30;97.00;;;;;;5037579;28;20083;-67
2022/09/06 11:53:05;;;;;;;8.43;5.38;;;25.50;97.20;;;;;;5020112;28;20088;-67
2022/09/06 11:55:37;;;;;;;7.32;6.13;;;25.50;96.90;;;;;;5036572;28;20049;-67
2022/09/06 11:58:15;;;;;;;11.98;7.25;;;25.50;96.60;;;;;;5034861;28;20467;-67
2022/09/06 12:00:41;;;;;;;7.88;5.82;;;25.50;96.90;;;;;;5052012;28;20118;-67
2022/09/06 12:03:08;;;;;;;5.97;5.38;;;25.60;96.90;;;;;;5036035;28;20049;-67
2022/09/06 12:06:12;;;;;;;7.95;5.78;;;25.70;96.30;;;;;;5052440;28;20045;-67
2022/09/06 12:08:38;;;;;;;9.07;5.85;;;25.70;95.60;;;;;;5052592;28;20076;-67
2022/09/06 12:11:20;;;;;;;8.95;5.85;;;25.90;95.30;;;;;;5051684;28;20463;-67
2022/09/06 12:13:55;;;;;;;9.45;5.95;;;25.80;95.00;;;;;;5052137;28;20047;-67
2022/09/06 12:16:22;;;;;;;6.80;6.10;;;26.00;95.20;;;;;;5036134;28;20041;-66
2022/09/06 12:18:47;;;;;;;6.53;5.85;;;25.90;95.30;;;;;;5037043;28;20051;-67
2022/09/06 12:21:34;;;;;;;8.43;6.00;;;26.10;95.20;;;;;;5036353;28;20128;-67
2022/09/06 12:24:00;;;;;;;7.75;6.40;;;26.20;95.00;;;;;;5036147;28;20071;-67
2022/09/06 12:26:49;;;;;;;8.75;7.15;;;26.40;95.20;;;;;;5036938;28;20041;-67
2022/09/06 12:29:22;;;;;;;11.63;7.28;;;26.50;94.60;;;;;;5019461;28;20057;-68
2022/09/06 12:31:53;;;;;;;10.00;7.13;;;26.30;94.90;;;;;;5036467;28;20045;-67
2022/09/06 12:34:27;;;;;;;8.90;7.85;;;26.20;94.90;;;;;;5036132;28;20053;-67
2022/09/06 12:37:09;;;;;;;10.13;7.32;;;26.20;95.10;;;;;;5037108;28;20039;-67
2022/09/06 12:39:34;;;;;;;8.02;6.47;;;26.20;95.00;;;;;;5036935;28;20049;-67
2022/09/06 12:42:03;;;;;;;9.10;7.05;;;26.10;94.60;;;;;;5035864;28;20132;-67
2022/09/06 12:44:53;;;;;;;12.30;6.95;;;26.10;94.50;;;;;;5036827;28;20120;-67
2022/09/06 12:47:29;;;;;;;7.20;6.50;;;26.20;94.40;;;;;;5036876;28;20452;-67
2022/09/06 12:50:16;;;;;;;10.02;6.43;;;26.40;95.10;;;;;;5036355;28;20472;-67
2022/09/06 12:53:15;;;;;;;9.45;7.03;;;26.70;94.80;;;;;;5035896;28;20092;-67